Terminal Aerodrome Forecast
Issued by NWS

Home | Current Version | Previous Version | Text Only | Print | Product List | Glossary On
Versions: 1 2 3 4 5 6 7 8 9 10 11 12 13 14 15 16 17
000
FTUS45 KBOU 242332
TAFBJC
TAF
KBJC 242332Z 2500/2524 32011KT P6SM SCT080 BKN220
     FM250200 25009KT P6SM FEW080 BKN220
     FM251300 VRB05KT P6SM FEW120 SCT220
     FM252200 30012G19KT P6SM VCTS SCT080CB BKN140=

USA.gov is the U.S. government's official web portal to all federal, state and local government web resources and services.